createdAt,value
2018-06-20T00:00:36.607Z,24.50
2018-06-20T00:03:06.516Z,24.13
2018-06-20T00:05:36.071Z,23.53
2018-06-20T00:08:05.773Z,24.57
2018-06-20T00:10:35.437Z,24.67
2018-06-20T00:13:05.089Z,25.23
2018-06-20T00:15:34.747Z,24.63
2018-06-20T00:18:04.420Z,24.67
2018-06-20T00:20:34.080Z,23.50
2018-06-20T00:23:03.802Z,23.57
2018-06-20T00:25:33.482Z,23.80
2018-06-20T00:28:03.192Z,22.73
2018-06-20T00:30:33.006Z,24.70
2018-06-20T00:33:02.622Z,24.93
2018-06-20T00:35:32.504Z,24.47
2018-06-20T00:38:02.091Z,24.77
2018-06-20T00:40:31.625Z,24.23
2018-06-20T00:43:01.289Z,24.97
2018-06-20T00:45:30.916Z,26.53
2018-06-20T00:48:00.475Z,24.40
2018-06-20T00:50:30.091Z,25.43
2018-06-20T00:52:59.631Z,25.00
2018-06-20T00:55:46.209Z,24.43
2018-06-20T00:58:15.803Z,25.33
2018-06-20T01:00:45.545Z,25.40
2018-06-20T01:03:15.171Z,23.10
2018-06-20T01:05:44.743Z,24.80
2018-06-20T01:08:14.440Z,25.20
2018-06-20T01:10:44.098Z,25.53
2018-06-20T01:13:13.660Z,26.07
2018-06-20T01:15:43.477Z,25.23
2018-06-20T01:18:13.112Z,25.07
2018-06-20T01:20:42.768Z,25.87
2018-06-20T01:23:12.399Z,26.67
2018-06-20T01:25:42.072Z,27.00
2018-06-20T01:28:11.352Z,27.80
2018-06-20T01:30:40.992Z,27.97
2018-06-20T01:33:10.716Z,25.63
2018-06-20T01:35:40.324Z,28.13
2018-06-20T01:38:09.899Z,25.73
2018-06-20T01:40:39.700Z,27.57
2018-06-20T01:43:09.491Z,26.80
2018-06-20T01:45:39.544Z,26.00
2018-06-20T01:48:09.682Z,26.70
2018-06-20T01:50:39.289Z,26.70
2018-06-20T01:53:08.864Z,27.70
2018-06-20T01:55:38.446Z,25.63
2018-06-20T01:58:08.038Z,26.60
2018-06-20T02:00:37.650Z,26.30
2018-06-20T02:03:07.308Z,25.97
2018-06-20T02:05:36.875Z,25.50
2018-06-20T02:08:06.454Z,26.03
2018-06-20T02:10:36.031Z,26.43
2018-06-20T02:13:05.670Z,25.93
2018-06-20T02:15:35.350Z,26.07
2018-06-20T02:18:04.966Z,26.73
2018-06-20T02:20:34.635Z,26.40
2018-06-20T02:23:04.511Z,27.63
2018-06-20T02:25:34.122Z,26.47
2018-06-20T02:28:03.785Z,26.77
2018-06-20T02:30:33.395Z,28.10
2018-06-20T02:33:03.043Z,26.57
2018-06-20T02:35:32.681Z,28.20
2018-06-20T02:38:02.427Z,27.47
2018-06-20T02:40:32.070Z,26.47
2018-06-20T02:43:01.600Z,28.60
2018-06-20T02:45:31.170Z,28.17
2018-06-20T02:48:01.128Z,27.80
2018-06-20T02:50:30.706Z,28.87
2018-06-20T02:53:00.575Z,29.03
2018-06-20T02:55:30.148Z,28.93
2018-06-20T02:57:59.855Z,28.47
2018-06-20T03:00:29.459Z,28.50
2018-06-20T03:02:59.537Z,28.37
2018-06-20T03:05:29.227Z,27.77
2018-06-20T03:07:59.001Z,28.50
2018-06-20T03:10:28.853Z,27.93
2018-06-20T03:12:58.455Z,27.47
2018-06-20T03:15:28.091Z,27.83
2018-06-20T03:17:57.814Z,27.50
2018-06-20T03:20:28.004Z,28.43
2018-06-20T03:22:57.604Z,28.43
2018-06-20T03:25:27.268Z,27.77
2018-06-20T03:27:56.921Z,28.33
2018-06-20T03:30:26.571Z,27.67
2018-06-20T03:32:56.176Z,27.53
2018-06-20T03:35:25.738Z,28.10
2018-06-20T03:37:55.308Z,27.57
2018-06-20T03:40:24.923Z,28.03
2018-06-20T03:42:54.674Z,29.83
2018-06-20T03:45:24.268Z,28.37
2018-06-20T03:47:53.886Z,28.90
2018-06-20T03:50:23.508Z,28.87
2018-06-20T03:52:53.076Z,28.90
2018-06-20T03:55:22.771Z,27.80
2018-06-20T03:57:52.371Z,28.60
2018-06-20T04:00:21.976Z,28.70
2018-06-20T04:02:51.707Z,28.03
2018-06-20T04:05:21.561Z,27.43
2018-06-20T04:07:51.197Z,28.23
2018-06-20T04:10:20.784Z,27.93
2018-06-20T04:12:50.591Z,28.50
2018-06-20T04:15:20.132Z,27.83
2018-06-20T04:17:49.762Z,29.43
2018-06-20T04:20:19.402Z,29.70
2018-06-20T04:22:49.045Z,28.97
2018-06-20T04:25:19.403Z,28.73
2018-06-20T04:27:49.037Z,29.33
2018-06-20T04:30:18.633Z,28.13
2018-06-20T04:32:48.930Z,28.60
2018-06-20T04:35:18.584Z,27.50
2018-06-20T04:37:48.179Z,29.17
2018-06-20T04:40:17.891Z,27.77
2018-06-20T04:42:47.571Z,28.73
2018-06-20T04:45:17.254Z,28.60
2018-06-20T04:47:46.933Z,29.03
2018-06-20T04:50:16.747Z,29.07
2018-06-20T04:52:46.545Z,27.60
2018-06-20T04:55:16.343Z,27.27
2018-06-20T04:57:46.091Z,29.13
2018-06-20T05:00:15.741Z,28.10
2018-06-20T05:02:45.413Z,28.40
2018-06-20T05:05:15.142Z,30.73
2018-06-20T05:07:44.808Z,28.63
2018-06-20T05:10:14.475Z,28.73
2018-06-20T05:12:44.043Z,29.10
2018-06-20T05:15:13.800Z,28.90
2018-06-20T05:17:43.431Z,28.07
2018-06-20T05:20:13.481Z,28.30
2018-06-20T05:22:43.525Z,28.33
2018-06-20T05:25:13.488Z,27.10
2018-06-20T05:27:43.125Z,25.93
2018-06-20T05:30:12.977Z,26.20
2018-06-20T05:32:42.554Z,25.83
2018-06-20T05:35:12.591Z,24.77
2018-06-20T05:37:42.404Z,26.03
2018-06-20T05:40:12.389Z,26.60
2018-06-20T05:42:42.027Z,25.83
2018-06-20T05:45:11.937Z,26.10
2018-06-20T05:47:41.791Z,26.30
2018-06-20T05:50:12.144Z,24.20
2018-06-20T05:52:41.827Z,23.67
2018-06-20T05:55:11.435Z,24.10
2018-06-20T05:57:41.083Z,23.57
2018-06-20T06:00:10.723Z,24.73
2018-06-20T06:02:40.488Z,22.30
2018-06-20T06:05:10.116Z,22.40
2018-06-20T06:07:39.863Z,22.77
2018-06-20T06:10:17.388Z,22.60
2018-06-20T06:12:47.953Z,22.30
2018-06-20T06:15:18.157Z,22.30
2018-06-20T06:17:47.845Z,21.57
2018-06-20T06:20:17.733Z,21.73
2018-06-20T06:22:47.399Z,21.80
2018-06-20T06:25:17.508Z,22.57
2018-06-20T06:27:47.253Z,21.23
2018-06-20T06:30:17.510Z,21.00
2018-06-20T06:32:47.174Z,21.33
2018-06-20T06:35:16.906Z,21.27
2018-06-20T06:37:46.557Z,21.17
2018-06-20T06:40:16.250Z,20.63
2018-06-20T06:42:45.821Z,20.10
2018-06-20T06:45:15.465Z,20.63
2018-06-20T06:47:45.215Z,19.53
2018-06-20T06:50:14.868Z,20.10
2018-06-20T06:52:44.471Z,19.33
2018-06-20T06:55:14.082Z,19.40
2018-06-20T06:57:43.629Z,19.20
2018-06-20T07:00:13.549Z,19.13
2018-06-20T07:02:43.337Z,18.77
2018-06-20T07:05:13.175Z,18.07
2018-06-20T07:07:43.105Z,18.53
2018-06-20T07:10:12.895Z,17.07
2018-06-20T07:12:42.523Z,17.30
2018-06-20T07:15:15.584Z,16.73
2018-06-20T07:17:45.170Z,16.77
2018-06-20T07:20:14.826Z,15.87
2018-06-20T07:22:44.426Z,16.10
2018-06-20T07:25:14.115Z,17.10
2018-06-20T07:27:43.711Z,16.50
2018-06-20T07:30:13.642Z,15.13
2018-06-20T07:32:43.179Z,14.70
2018-06-20T07:35:12.752Z,14.30
2018-06-20T07:37:42.382Z,13.27
2018-06-20T07:40:12.017Z,13.07
2018-06-20T07:42:41.686Z,11.93
2018-06-20T07:45:11.388Z,11.67
2018-06-20T07:47:41.583Z,12.33
2018-06-20T07:50:11.204Z,12.00
2018-06-20T07:52:40.879Z,11.33
2018-06-20T07:55:10.467Z,12.97
2018-06-20T07:57:40.151Z,13.67
2018-06-20T08:00:14.914Z,12.70
2018-06-20T08:03:06.883Z,12.57
2018-06-20T08:05:41.682Z,12.90
2018-06-20T08:08:16.452Z,12.70
2018-06-20T08:10:51.337Z,12.43
2018-06-20T08:13:26.176Z,12.87
2018-06-20T08:16:00.920Z,12.83
2018-06-20T08:18:35.711Z,12.43
2018-06-20T08:21:05.958Z,12.20
2018-06-20T08:23:35.605Z,11.47
2018-06-20T08:26:05.435Z,10.80
2018-06-20T08:28:35.085Z,11.33
2018-06-20T08:31:04.792Z,10.77
2018-06-20T08:33:34.432Z,9.93
2018-06-20T08:36:04.178Z,10.57
2018-06-20T08:38:34.183Z,10.27
2018-06-20T08:41:03.853Z,10.80
2018-06-20T08:43:33.562Z,9.93
2018-06-20T08:46:03.139Z,10.10
2018-06-20T08:48:32.769Z,10.10
2018-06-20T08:51:02.699Z,11.70
2018-06-20T08:53:32.471Z,10.10
2018-06-20T08:56:02.211Z,10.40
2018-06-20T08:58:31.979Z,9.90
2018-06-20T09:01:02.488Z,9.50
2018-06-20T09:03:32.159Z,9.63
2018-06-20T09:07:08.420Z,11.00
2018-06-20T09:09:43.258Z,9.97
2018-06-20T09:12:18.388Z,10.77
2018-06-20T09:14:53.119Z,11.70
2018-06-20T09:17:27.934Z,11.63
2018-06-20T09:19:58.504Z,12.30
2018-06-20T09:22:28.739Z,11.33
2018-06-20T09:24:58.609Z,12.20
2018-06-20T09:27:28.240Z,12.27
2018-06-20T09:29:57.837Z,13.27
2018-06-20T09:32:27.452Z,12.73
2018-06-20T09:34:57.114Z,13.60
2018-06-20T09:37:26.731Z,12.83
2018-06-20T09:39:56.397Z,12.63
2018-06-20T09:42:26.045Z,13.07
2018-06-20T09:44:55.745Z,13.10
2018-06-20T09:47:25.312Z,13.50
2018-06-20T09:49:55.147Z,13.97
2018-06-20T09:52:25.538Z,13.03
2018-06-20T09:54:55.204Z,13.67
2018-06-20T09:57:24.825Z,12.27
2018-06-20T09:59:59.610Z,11.77
2018-06-20T10:02:34.355Z,12.33
2018-06-20T10:05:09.348Z,12.50
2018-06-20T10:07:44.126Z,12.30
2018-06-20T10:10:18.981Z,12.30
2018-06-20T10:12:53.898Z,12.13
2018-06-20T10:15:23.630Z,11.53
2018-06-20T10:17:53.313Z,12.10
2018-06-20T10:20:31.081Z,13.10
2018-06-20T10:23:01.411Z,11.43
2018-06-20T10:25:31.050Z,11.97
2018-06-20T10:28:01.013Z,13.30
2018-06-20T10:30:30.675Z,13.13
2018-06-20T10:33:00.341Z,12.95
2018-06-20T10:35:30.027Z,12.93
2018-06-20T10:37:59.661Z,12.07
2018-06-20T10:40:29.254Z,11.50
2018-06-20T10:42:58.867Z,10.70
2018-06-20T10:45:33.558Z,11.40
2018-06-20T10:48:07.312Z,11.60
2018-06-20T10:50:37.510Z,12.55
2018-06-20T10:53:07.202Z,12.53
2018-06-20T10:55:39.097Z,12.63
2018-06-20T10:58:14.265Z,12.03
2018-06-20T11:00:49.076Z,12.60
2018-06-20T11:03:23.808Z,13.03
2018-06-20T11:05:58.613Z,12.25
2018-06-20T11:08:33.521Z,13.32
2018-06-20T11:11:08.031Z,12.15
2018-06-20T11:13:37.817Z,11.73
2018-06-20T11:16:07.527Z,11.93
2018-06-20T11:18:40.460Z,11.78
2018-06-20T11:21:10.020Z,12.40
2018-06-20T11:23:40.145Z,12.30
2018-06-20T11:26:09.821Z,11.90
2018-06-20T11:28:40.724Z,11.90
2018-06-20T11:31:10.450Z,12.27
2018-06-20T11:33:40.311Z,11.87
2018-06-20T11:36:09.996Z,12.33
2018-06-20T11:38:39.796Z,12.03
2018-06-20T11:41:09.523Z,11.70
2018-06-20T11:43:39.127Z,12.27
2018-06-20T11:46:14.072Z,10.70
2018-06-20T11:48:44.139Z,11.97
2018-06-20T11:51:13.787Z,10.77
2018-06-20T11:53:43.963Z,10.63
2018-06-20T11:56:13.570Z,10.70
2018-06-20T11:58:48.317Z,10.70
2018-06-20T12:01:22.712Z,10.53
2018-06-20T12:03:57.622Z,10.43
2018-06-20T12:06:32.354Z,9.80
2018-06-20T12:09:07.009Z,10.23
2018-06-20T12:11:41.851Z,10.77
2018-06-20T12:14:16.655Z,9.40
2018-06-20T12:16:47.758Z,9.67
2018-06-20T12:19:23.508Z,9.23
2018-06-20T12:21:58.355Z,9.40
2018-06-20T12:24:33.537Z,10.53
2018-06-20T12:27:08.632Z,8.87
2018-06-20T12:29:43.573Z,8.27
2018-06-20T12:32:18.350Z,9.37
2018-06-20T12:34:53.396Z,9.57
2018-06-20T12:37:28.122Z,9.10
2018-06-20T12:41:04.745Z,9.20
2018-06-20T12:43:39.725Z,9.20
2018-06-20T12:46:13.681Z,9.30
2018-06-20T12:48:43.388Z,8.83
2018-06-20T12:51:13.337Z,9.57
2018-06-20T12:53:46.134Z,9.40
2018-06-20T12:56:15.779Z,8.47
2018-06-20T12:58:45.423Z,8.50
2018-06-20T13:01:15.376Z,9.33
2018-06-20T13:03:45.064Z,8.43
2018-06-20T13:06:14.962Z,7.43
2018-06-20T13:08:44.641Z,7.70
2018-06-20T13:11:14.562Z,7.50
2018-06-20T13:13:44.209Z,7.60
2018-06-20T13:16:13.847Z,6.90
2018-06-20T13:18:55.502Z,6.33
2018-06-20T13:21:25.522Z,6.90
2018-06-20T13:23:55.384Z,6.80
2018-06-20T13:26:25.508Z,6.70
2018-06-20T13:28:55.394Z,6.33
2018-06-20T13:31:30.355Z,6.40
2018-06-20T13:34:05.468Z,6.77
2018-06-20T13:36:40.198Z,5.50
2018-06-20T13:39:15.067Z,4.70
2018-06-20T13:41:50.141Z,4.50
2018-06-20T13:44:24.788Z,5.40
2018-06-20T13:47:00.116Z,4.47
2018-06-20T13:49:29.820Z,4.57
2018-06-20T13:51:59.531Z,4.90
2018-06-20T13:54:29.174Z,4.30
2018-06-20T13:56:58.788Z,4.40
2018-06-20T13:59:28.551Z,4.10
2018-06-20T14:01:58.244Z,3.83
2018-06-20T14:04:27.954Z,4.30
2018-06-20T14:06:57.588Z,4.90
2018-06-20T14:09:27.916Z,4.13
2018-06-20T14:11:57.613Z,4.13
2018-06-20T14:14:27.453Z,3.60
2018-06-20T14:16:57.653Z,3.77
2018-06-20T14:19:32.415Z,3.90
2018-06-20T14:22:01.679Z,3.70
2018-06-20T14:24:31.505Z,3.50
2018-06-20T14:27:01.172Z,3.10
2018-06-20T14:29:36.162Z,3.47
2018-06-20T14:32:10.995Z,3.30
2018-06-20T14:34:45.841Z,2.83
2018-06-20T14:37:20.511Z,3.47
2018-06-20T14:39:55.602Z,3.13
2018-06-20T14:42:30.340Z,3.10
2018-06-20T14:45:05.177Z,2.90
2018-06-20T14:47:35.041Z,2.70
2018-06-20T14:50:04.804Z,2.70
2018-06-20T14:52:34.610Z,2.77
2018-06-20T14:55:04.301Z,2.80
2018-06-20T14:57:34.008Z,2.70
2018-06-20T15:00:03.356Z,2.57
2018-06-20T15:02:33.097Z,2.70
2018-06-20T15:05:02.755Z,2.80
2018-06-20T15:07:32.430Z,2.43
2018-06-20T15:10:02.129Z,2.47
2018-06-20T15:12:31.793Z,2.73
2018-06-20T15:15:01.637Z,2.67
2018-06-20T15:17:31.355Z,2.40
2018-06-20T15:20:01.530Z,2.77
2018-06-20T15:22:36.297Z,2.37
2018-06-20T15:25:06.081Z,2.60
2018-06-20T15:27:41.056Z,2.87
2018-06-20T15:30:15.870Z,2.43
2018-06-20T15:32:50.713Z,2.00
2018-06-20T15:35:25.766Z,2.40
2018-06-20T15:38:01.313Z,2.27
2018-06-20T15:40:31.028Z,2.00
2018-06-20T15:43:00.875Z,2.20
2018-06-20T15:45:30.569Z,2.03
2018-06-20T15:48:00.383Z,2.00
2018-06-20T15:50:29.995Z,2.20
2018-06-20T15:52:59.624Z,3.63
2018-06-20T15:55:29.265Z,2.80
2018-06-20T15:57:58.865Z,2.67
2018-06-20T16:00:28.787Z,4.43
2018-06-20T16:02:58.410Z,2.57
2018-06-20T16:05:28.023Z,3.33
2018-06-20T16:07:57.605Z,2.70
2018-06-20T16:10:27.194Z,2.90
2018-06-20T16:12:56.831Z,2.60
2018-06-20T16:15:26.529Z,2.73
2018-06-20T16:17:56.212Z,2.90
2018-06-20T16:20:31.041Z,2.63
2018-06-20T16:23:05.914Z,2.80
2018-06-20T16:25:40.827Z,2.73
2018-06-20T16:28:15.733Z,3.00
2018-06-20T16:30:51.633Z,3.37
2018-06-20T16:33:21.252Z,3.80
2018-06-20T16:35:50.945Z,3.10
2018-06-20T16:38:20.547Z,2.90
2018-06-20T16:40:50.219Z,2.97
2018-06-20T16:43:19.921Z,3.10
2018-06-20T16:45:49.683Z,2.60
2018-06-20T16:48:19.387Z,2.70
2018-06-20T16:50:49.019Z,2.90
2018-06-20T16:53:18.747Z,2.63
2018-06-20T16:55:48.425Z,2.67
2018-06-20T16:58:18.088Z,2.50
2018-06-20T17:00:47.732Z,2.77
2018-06-20T17:03:17.404Z,2.60
2018-06-20T17:05:47.030Z,3.20
2018-06-20T17:08:16.652Z,3.33
2018-06-20T17:10:46.340Z,3.37
2018-06-20T17:13:20.725Z,3.20
2018-06-20T17:15:55.390Z,2.80
2018-06-20T17:18:30.309Z,3.53
2018-06-20T17:21:04.973Z,2.60
2018-06-20T17:24:40.309Z,3.10
2018-06-20T17:27:10.360Z,2.20
2018-06-20T17:29:40.038Z,2.67
2018-06-20T17:32:09.748Z,3.30
2018-06-20T17:34:39.420Z,2.30
2018-06-20T17:37:09.164Z,5.13
2018-06-20T17:39:38.853Z,3.27
2018-06-20T17:42:08.535Z,2.60
2018-06-20T17:44:37.868Z,2.93
2018-06-20T17:47:07.482Z,2.20
2018-06-20T17:49:37.364Z,2.43
2018-06-20T17:52:07.036Z,2.60
2018-06-20T17:54:36.644Z,2.03
2018-06-20T17:57:06.791Z,1.97
2018-06-20T17:59:36.966Z,2.20
2018-06-20T18:02:07.696Z,2.53
2018-06-20T18:04:42.678Z,2.93
2018-06-20T18:07:17.471Z,2.33
2018-06-20T18:09:52.473Z,2.20
2018-06-20T18:12:27.265Z,2.67
2018-06-20T18:15:01.979Z,2.53
2018-06-20T18:17:31.627Z,2.43
2018-06-20T18:20:01.257Z,2.50
2018-06-20T18:22:30.994Z,2.80
2018-06-20T18:25:00.649Z,2.70
2018-06-20T18:27:30.219Z,2.60
2018-06-20T18:29:59.891Z,2.60
2018-06-20T18:32:29.631Z,2.80
2018-06-20T18:34:59.380Z,2.83
2018-06-20T18:37:29.151Z,2.87
2018-06-20T18:40:10.947Z,3.23
2018-06-20T18:42:40.684Z,3.10
2018-06-20T18:45:10.424Z,2.70
2018-06-20T18:47:45.349Z,3.20
2018-06-20T18:50:15.491Z,3.40
2018-06-20T18:52:45.265Z,3.57
2018-06-20T18:55:15.389Z,3.30
2018-06-20T18:57:50.310Z,3.50
2018-06-20T19:00:25.584Z,3.30
2018-06-20T19:03:00.525Z,3.37
2018-06-20T19:05:35.842Z,3.77
2018-06-20T19:08:10.819Z,3.50
2018-06-20T19:10:40.517Z,3.90
2018-06-20T19:13:10.375Z,4.00
2018-06-20T19:15:40.154Z,4.77
2018-06-20T19:18:09.887Z,4.53
2018-06-20T19:20:39.661Z,4.30
2018-06-20T19:23:09.503Z,4.00
2018-06-20T19:25:39.320Z,4.13
2018-06-20T19:28:15.554Z,4.40
2018-06-20T19:30:44.945Z,4.10
2018-06-20T19:33:14.601Z,4.33
2018-06-20T19:35:45.023Z,3.90
2018-06-20T19:38:14.723Z,3.83
2018-06-20T19:40:44.400Z,3.77
2018-06-20T19:43:14.228Z,4.50
2018-06-20T19:45:44.704Z,3.83
2018-06-20T19:48:15.373Z,3.47
2018-06-20T19:50:45.139Z,3.60
2018-06-20T19:53:14.844Z,3.63
2018-06-20T19:55:44.595Z,3.43
2018-06-20T19:58:14.563Z,4.23
2018-06-20T20:00:44.234Z,4.33
2018-06-20T20:03:13.959Z,5.13
2018-06-20T20:05:43.700Z,5.50
2018-06-20T20:08:13.423Z,5.70
2018-06-20T20:10:43.120Z,4.87
2018-06-20T20:13:12.831Z,6.70
2018-06-20T20:15:42.568Z,4.53
2018-06-20T20:18:12.329Z,4.53
2018-06-20T20:20:41.984Z,4.00
2018-06-20T20:23:11.630Z,3.60
2018-06-20T20:25:41.340Z,4.00
2018-06-20T20:28:11.081Z,3.70
2018-06-20T20:30:40.768Z,3.50
2018-06-20T20:33:10.105Z,2.77
2018-06-20T20:35:39.724Z,2.70
2018-06-20T20:38:09.369Z,3.37
2018-06-20T20:40:38.968Z,3.30
2018-06-20T20:43:08.696Z,3.10
2018-06-20T20:45:38.416Z,2.93
2018-06-20T20:48:08.264Z,3.47
2018-06-20T20:50:37.901Z,3.77
2018-06-20T20:53:07.683Z,3.27
2018-06-20T20:55:37.312Z,4.17
2018-06-20T20:58:06.967Z,4.13
2018-06-20T21:00:36.622Z,3.80
2018-06-20T21:03:06.233Z,3.77
2018-06-20T21:05:35.886Z,3.57
2018-06-20T21:08:05.477Z,3.97
2018-06-20T21:10:35.193Z,4.23
2018-06-20T21:13:04.864Z,4.27
2018-06-20T21:15:34.569Z,4.47
2018-06-20T21:18:04.328Z,4.77
2018-06-20T21:20:33.949Z,4.50
2018-06-20T21:23:03.602Z,4.50
2018-06-20T21:25:33.724Z,4.40
2018-06-20T21:28:06.406Z,4.67
2018-06-20T21:30:36.014Z,4.70
2018-06-20T21:33:05.730Z,4.57
2018-06-20T21:35:35.320Z,4.03
2018-06-20T21:38:05.036Z,4.10
2018-06-20T21:40:34.648Z,4.43
2018-06-20T21:43:04.316Z,3.67
2018-06-20T21:45:33.969Z,3.90
2018-06-20T21:48:03.669Z,4.40
2018-06-20T21:50:33.705Z,5.00
2018-06-20T21:53:03.382Z,4.37
2018-06-20T21:55:33.614Z,4.37
2018-06-20T21:58:03.276Z,4.10
2018-06-20T22:00:33.339Z,3.60
2018-06-20T22:03:03.080Z,4.30
2018-06-20T22:08:35.543Z,4.10
2018-06-20T22:11:05.773Z,4.20
2018-06-20T22:13:35.924Z,4.33
2018-06-20T22:16:05.607Z,4.00
2018-06-20T22:18:35.531Z,4.40
2018-06-20T22:21:05.164Z,4.30
2018-06-20T22:23:35.215Z,4.50
2018-06-20T22:26:04.949Z,4.60
2018-06-20T22:28:35.272Z,4.10
2018-06-20T22:31:05.153Z,4.17
2018-06-20T22:33:35.225Z,4.13
2018-06-20T22:36:04.951Z,4.50
2018-06-20T22:38:34.903Z,4.27
2018-06-20T22:41:05.396Z,5.00
2018-06-20T22:43:35.299Z,4.90
2018-06-20T22:46:05.090Z,4.70
2018-06-20T22:48:34.962Z,4.93
2018-06-20T22:51:04.566Z,4.60
2018-06-20T22:53:34.474Z,4.50
2018-06-20T22:56:04.227Z,4.97
2018-06-20T22:58:33.789Z,4.80
2018-06-20T23:01:03.475Z,4.80
2018-06-20T23:03:33.275Z,5.10
2018-06-20T23:06:02.922Z,4.93
2018-06-20T23:08:32.593Z,4.80
2018-06-20T23:11:01.231Z,5.30
2018-06-20T23:13:31.102Z,5.10
2018-06-20T23:16:00.860Z,5.10
2018-06-20T23:18:30.715Z,4.83
2018-06-20T23:21:00.675Z,5.20
2018-06-20T23:23:30.344Z,5.60
2018-06-20T23:26:00.012Z,5.30
2018-06-20T23:28:30.565Z,5.37
2018-06-20T23:31:00.585Z,6.03
2018-06-20T23:33:30.243Z,5.80
2018-06-20T23:36:00.022Z,5.97
2018-06-20T23:38:29.621Z,5.80
2018-06-20T23:40:59.376Z,5.37
2018-06-20T23:43:28.923Z,5.97
2018-06-20T23:45:58.578Z,6.80
2018-06-20T23:48:28.095Z,6.67
2018-06-20T23:50:57.676Z,6.33
2018-06-20T23:53:27.276Z,6.60
2018-06-20T23:55:57.020Z,6.73
2018-06-20T23:58:26.573Z,7.10
